createdAt,value
2022-08-11T00:05:06.130Z,16.02
2022-08-11T00:20:14.653Z,15.89
2022-08-11T00:35:54.469Z,15.46
2022-08-11T00:50:17.968Z,15.01
2022-08-11T01:05:18.634Z,14.81
2022-08-11T01:20:46.534Z,14.75
2022-08-11T01:35:24.490Z,14.73
2022-08-11T01:50:25.639Z,14.40
2022-08-11T02:05:26.363Z,14.28
2022-08-11T02:20:27.128Z,13.99
2022-08-11T02:35:28.186Z,13.95
2022-08-11T02:50:29.349Z,13.70
2022-08-11T03:05:30.465Z,13.36
2022-08-11T03:20:33.438Z,13.29
2022-08-11T03:35:37.910Z,13.29
2022-08-11T03:50:39.609Z,13.17
2022-08-11T04:05:40.810Z,13.23
2022-08-11T04:20:41.904Z,13.23
2022-08-11T04:35:46.052Z,13.42
2022-08-11T04:51:08.750Z,14.07
2022-08-11T05:05:56.637Z,15.29
2022-08-11T05:20:58.793Z,16.73
2022-08-11T05:36:00.015Z,17.84
2022-08-11T05:51:03.717Z,19.22
2022-08-11T06:06:10.834Z,20.76
2022-08-11T06:21:11.566Z,22.06
2022-08-11T06:36:12.670Z,23.20
2022-08-11T06:51:13.927Z,24.39
2022-08-11T07:06:15.100Z,25.43
2022-08-11T07:22:01.599Z,26.76
2022-08-11T07:36:22.503Z,27.34
2022-08-11T07:51:28.470Z,28.22
2022-08-11T08:06:36.112Z,28.85
2022-08-11T08:21:33.611Z,29.27
2022-08-11T08:36:33.681Z,29.89
2022-08-11T08:51:57.043Z,30.82
2022-08-11T09:06:38.848Z,31.54
2022-08-11T09:21:46.360Z,32.22
2022-08-11T09:36:44.035Z,32.51
2022-08-11T09:51:59.767Z,32.75
2022-08-11T10:06:54.151Z,32.81
2022-08-11T10:21:54.312Z,32.67
2022-08-11T10:36:54.923Z,33.34
2022-08-11T10:51:58.907Z,34.00
2022-08-11T11:07:00.078Z,34.31
2022-08-11T11:22:00.194Z,33.97
2022-08-11T11:37:00.829Z,33.90
2022-08-11T11:52:02.380Z,34.66
2022-08-11T12:07:02.940Z,34.70
2022-08-11T12:22:03.544Z,33.60
2022-08-11T12:37:03.981Z,33.86
2022-08-11T12:52:14.999Z,34.50
2022-08-11T13:07:10.751Z,34.73
2022-08-11T13:22:12.280Z,34.96
2022-08-11T13:37:12.580Z,35.50
2022-08-11T13:52:14.069Z,35.81
2022-08-11T14:07:14.654Z,35.80
2022-08-11T14:22:15.257Z,35.65
2022-08-11T14:37:15.883Z,35.09
2022-08-11T14:52:17.448Z,34.56
2022-08-11T15:07:18.043Z,35.03
2022-08-11T15:22:18.628Z,35.18
2022-08-11T15:37:19.277Z,34.09
2022-08-11T15:52:20.868Z,33.42
2022-08-11T16:07:21.489Z,32.70
2022-08-11T16:22:26.124Z,32.51
2022-08-11T16:37:27.444Z,31.86
2022-08-11T16:52:28.121Z,30.72
2022-08-11T17:07:40.253Z,29.87
2022-08-11T17:22:34.811Z,29.28
2022-08-11T17:37:34.947Z,28.68
2022-08-11T17:52:36.010Z,27.97
2022-08-11T18:07:36.681Z,27.44
2022-08-11T18:22:38.260Z,26.82
2022-08-11T18:37:39.341Z,25.99
2022-08-11T18:53:29.882Z,25.10
2022-08-11T19:08:30.531Z,24.13
2022-08-11T19:23:30.608Z,23.13
2022-08-11T19:38:31.209Z,22.36
2022-08-11T19:53:31.281Z,21.46
2022-08-11T20:08:31.889Z,20.95
2022-08-11T20:23:31.987Z,20.32
2022-08-11T20:38:33.625Z,20.02
2022-08-11T20:53:35.647Z,19.95
2022-08-11T21:08:37.280Z,19.83
2022-08-11T21:23:37.371Z,19.66
2022-08-11T21:38:37.956Z,19.48
2022-08-11T21:53:38.056Z,19.18
2022-08-11T22:08:38.653Z,18.95
2022-08-11T22:23:38.759Z,18.63
2022-08-11T22:38:39.369Z,18.10
2022-08-11T22:53:57.368Z,17.77
2022-08-11T23:08:44.590Z,17.25
2022-08-11T23:23:45.683Z,16.91
2022-08-11T23:38:45.793Z,16.49
2022-08-11T23:53:46.375Z,16.11
